AAY7 KIAD-KSRQ
Flight info
| Callsign | AAY7 |
|---|---|
| Flight time | 1h 54m |
| Altitude | 38000 |
| Route | JDUBB4 RRSIN GSO Q75 SLOJO Q103 PUPYY KYYUU |
| Aircraft | B752/M-SDE3FGHIM3RWXY/LB1 |
Departure
| Time | 2026-04-26 00:39 |
|---|---|
| Airport | Washington Dulles International Airport (KIAD) |
Arrival
| Time | 2026-04-26 02:33 |
|---|---|
| Airport | Sarasota Bradenton International Airport (KSRQ) |
| Time | Latitude | Longitude | Altitude | Speed | Heading |
|---|---|---|---|---|---|
| 2026-04-26 00:13 | 38.94929 | -77.44476 | 322 ft | 0 kts | 198° |
| 2026-04-26 00:25 | 38.94935 | -77.44474 | 322 ft | 2 kts | 198° |
| 2026-04-26 00:26 | 38.94949 | -77.44468 | 322 ft | 2 kts | 199° |
| 2026-04-26 00:26 | 38.94963 | -77.44462 | 322 ft | 2 kts | 198° |
| 2026-04-26 00:26 | 38.94978 | -77.44456 | 322 ft | 2 kts | 199° |
| 2026-04-26 00:26 | 38.94992 | -77.44450 | 322 ft | 2 kts | 199° |
| 2026-04-26 00:27 | 38.95006 | -77.44443 | 322 ft | 2 kts | 219° |
| 2026-04-26 00:27 | 38.95016 | -77.44428 | 322 ft | 2 kts | 244° |
| 2026-04-26 00:27 | 38.95019 | -77.44413 | 322 ft | 0 kts | 267° |
| 2026-04-26 00:27 | 38.95019 | -77.44405 | 322 ft | 0 kts | 270° |
| 2026-04-26 00:28 | 38.95019 | -77.44404 | 322 ft | 0 kts | 270° |
| 2026-04-26 00:30 | 38.95019 | -77.44417 | 322 ft | 5 kts | 269° |
| 2026-04-26 00:30 | 38.95018 | -77.44507 | 322 ft | 12 kts | 269° |
| 2026-04-26 00:30 | 38.95018 | -77.44625 | 322 ft | 13 kts | 271° |
| 2026-04-26 00:31 | 38.95020 | -77.44747 | 322 ft | 13 kts | 271° |
| 2026-04-26 00:31 | 38.95021 | -77.44872 | 322 ft | 14 kts | 271° |
| 2026-04-26 00:31 | 38.95022 | -77.44998 | 322 ft | 14 kts | 271° |
| 2026-04-26 00:31 | 38.95022 | -77.45127 | 322 ft | 14 kts | 270° |
| 2026-04-26 00:32 | 38.95024 | -77.45258 | 322 ft | 14 kts | 271° |
| 2026-04-26 00:32 | 38.95025 | -77.45393 | 322 ft | 15 kts | 271° |
| 2026-04-26 00:32 | 38.95026 | -77.45511 | 322 ft | 0 kts | 270° |
| 2026-04-26 00:33 | 38.95026 | -77.45515 | 322 ft | 2 kts | 271° |
| 2026-04-26 00:33 | 38.95026 | -77.45548 | 322 ft | 3 kts | 271° |
| 2026-04-26 00:33 | 38.95026 | -77.45557 | 322 ft | 0 kts | 271° |
| 2026-04-26 00:33 | 38.95026 | -77.45562 | 322 ft | 2 kts | 264° |
| 2026-04-26 00:34 | 38.95018 | -77.45591 | 322 ft | 4 kts | 241° |
| 2026-04-26 00:34 | 38.94988 | -77.45603 | 322 ft | 7 kts | 180° |
| 2026-04-26 00:34 | 38.94897 | -77.45604 | 322 ft | 18 kts | 181° |
| 2026-04-26 00:34 | 38.94734 | -77.45606 | 322 ft | 27 kts | 181° |
| 2026-04-26 00:35 | 38.94535 | -77.45608 | 322 ft | 29 kts | 180° |
| 2026-04-26 00:35 | 38.94332 | -77.45610 | 322 ft | 28 kts | 181° |
| 2026-04-26 00:35 | 38.94133 | -77.45615 | 322 ft | 28 kts | 181° |
| 2026-04-26 00:35 | 38.93938 | -77.45615 | 322 ft | 28 kts | 179° |
| 2026-04-26 00:36 | 38.93743 | -77.45617 | 322 ft | 27 kts | 174° |
| 2026-04-26 00:36 | 38.93601 | -77.45497 | 322 ft | 21 kts | 181° |
| 2026-04-26 00:36 | 38.93472 | -77.45551 | 322 ft | 2 kts | 201° |
| 2026-04-26 00:37 | 38.93433 | -77.45570 | 322 ft | 12 kts | 202° |
| 2026-04-26 00:38 | 38.93390 | -77.45676 | 322 ft | 15 kts | 285° |
| 2026-04-26 00:38 | 38.93429 | -77.45817 | 322 ft | 23 kts | 291° |
| 2026-04-26 00:38 | 38.93583 | -77.46339 | 323 ft | 111 kts | 291° |
| 2026-04-26 00:38 | 38.93954 | -77.47640 | 513 ft | 183 kts | 291° |
| 2026-04-26 00:39 | 38.94439 | -77.49312 | 1196 ft | 220 kts | 291° |
| 2026-04-26 00:39 | 38.94992 | -77.51255 | 2228 ft | 245 kts | 290° |
| 2026-04-26 00:39 | 38.95608 | -77.53203 | 3761 ft | 241 kts | 290° |
| 2026-04-26 00:39 | 38.96269 | -77.55219 | 3644 ft | 257 kts | 291° |
| 2026-04-26 00:40 | 38.96927 | -77.57278 | 3496 ft | 242 kts | 290° |
| 2026-04-26 00:40 | 38.97252 | -77.59287 | 3454 ft | 222 kts | 261° |
| 2026-04-26 00:40 | 38.96688 | -77.61079 | 3456 ft | 220 kts | 225° |
| 2026-04-26 00:40 | 38.95343 | -77.62116 | 3828 ft | 242 kts | 191° |
| 2026-04-26 00:41 | 38.93621 | -77.62151 | 4637 ft | 257 kts | 176° |
| 2026-04-26 00:41 | 38.91827 | -77.61865 | 5545 ft | 267 kts | 175° |
| 2026-04-26 00:41 | 38.89989 | -77.61511 | 6575 ft | 271 kts | 175° |
| 2026-04-26 00:41 | 38.88119 | -77.61106 | 7532 ft | 277 kts | 175° |
| 2026-04-26 00:42 | 38.86247 | -77.60685 | 8483 ft | 281 kts | 175° |
| 2026-04-26 00:42 | 38.84299 | -77.60242 | 9432 ft | 286 kts | 176° |
| 2026-04-26 00:42 | 38.82347 | -77.59784 | 10265 ft | 293 kts | 175° |
| 2026-04-26 00:42 | 38.80277 | -77.59309 | 10843 ft | 310 kts | 175° |
| 2026-04-26 00:43 | 38.78088 | -77.58827 | 11304 ft | 330 kts | 175° |
| 2026-04-26 00:43 | 38.75752 | -77.58319 | 11673 ft | 352 kts | 175° |
| 2026-04-26 00:43 | 38.73263 | -77.57788 | 12072 ft | 370 kts | 175° |
| 2026-04-26 00:43 | 38.70721 | -77.57253 | 12819 ft | 376 kts | 175° |
| 2026-04-26 00:44 | 38.68104 | -77.56715 | 13560 ft | 382 kts | 175° |
| 2026-04-26 00:44 | 38.65471 | -77.56145 | 14308 ft | 388 kts | 172° |
| 2026-04-26 00:44 | 38.62907 | -77.55093 | 15063 ft | 395 kts | 164° |
| 2026-04-26 00:44 | 38.60248 | -77.54219 | 15769 ft | 394 kts | 177° |
| 2026-04-26 00:45 | 38.57505 | -77.54017 | 16433 ft | 396 kts | 185° |
| 2026-04-26 00:45 | 38.54784 | -77.54162 | 17208 ft | 396 kts | 188° |
| 2026-04-26 00:45 | 38.52028 | -77.54475 | 17833 ft | 401 kts | 190° |
| 2026-04-26 00:45 | 38.49217 | -77.54905 | 18557 ft | 404 kts | 191° |
| 2026-04-26 00:46 | 38.46460 | -77.55385 | 19230 ft | 407 kts | 192° |
| 2026-04-26 00:46 | 38.43626 | -77.55911 | 19847 ft | 412 kts | 193° |
| 2026-04-26 00:46 | 38.40841 | -77.56741 | 20569 ft | 408 kts | 203° |
| 2026-04-26 00:46 | 38.38261 | -77.58169 | 21078 ft | 409 kts | 213° |
| 2026-04-26 00:47 | 38.35889 | -77.60075 | 21843 ft | 406 kts | 217° |
| 2026-04-26 00:47 | 38.33507 | -77.62054 | 22354 ft | 412 kts | 217° |
| 2026-04-26 00:47 | 38.31093 | -77.64085 | 22942 ft | 415 kts | 218° |
| 2026-04-26 00:47 | 38.28816 | -77.66258 | 23549 ft | 415 kts | 223° |
| 2026-04-26 00:48 | 38.26586 | -77.68650 | 24066 ft | 420 kts | 223° |
| 2026-04-26 00:48 | 38.24352 | -77.71035 | 24751 ft | 420 kts | 223° |
| 2026-04-26 00:48 | 38.22102 | -77.73440 | 25274 ft | 424 kts | 223° |
| 2026-04-26 00:48 | 38.19866 | -77.75831 | 25854 ft | 425 kts | 223° |
| 2026-04-26 00:49 | 38.17604 | -77.78249 | 26359 ft | 428 kts | 223° |
| 2026-04-26 00:49 | 38.15324 | -77.80688 | 26884 ft | 431 kts | 223° |
| 2026-04-26 00:49 | 38.13007 | -77.83160 | 27272 ft | 435 kts | 223° |
| 2026-04-26 00:49 | 38.10703 | -77.85619 | 27947 ft | 433 kts | 223° |
| 2026-04-26 00:50 | 38.08396 | -77.88077 | 28372 ft | 436 kts | 223° |
| 2026-04-26 00:50 | 38.06097 | -77.90529 | 28912 ft | 436 kts | 223° |
| 2026-04-26 00:50 | 38.03736 | -77.93041 | 29177 ft | 443 kts | 223° |
| 2026-04-26 00:50 | 38.01391 | -77.95537 | 29822 ft | 440 kts | 223° |
| 2026-04-26 00:51 | 37.99048 | -77.98023 | 30260 ft | 442 kts | 223° |
| 2026-04-26 00:51 | 37.96699 | -78.00519 | 30680 ft | 444 kts | 223° |
| 2026-04-26 00:51 | 37.94316 | -78.03046 | 31284 ft | 441 kts | 223° |
| 2026-04-26 00:51 | 37.91976 | -78.05526 | 31744 ft | 441 kts | 223° |
| 2026-04-26 00:52 | 37.89633 | -78.08008 | 32246 ft | 441 kts | 223° |
| 2026-04-26 00:52 | 37.87293 | -78.10484 | 32852 ft | 437 kts | 223° |
| 2026-04-26 00:52 | 37.84972 | -78.12938 | 33261 ft | 438 kts | 223° |
| 2026-04-26 00:52 | 37.82655 | -78.15387 | 33673 ft | 438 kts | 223° |
| 2026-04-26 00:53 | 37.80322 | -78.17849 | 34185 ft | 436 kts | 223° |
| 2026-04-26 00:53 | 37.78007 | -78.20289 | 34732 ft | 433 kts | 224° |
| 2026-04-26 00:53 | 37.75671 | -78.22750 | 35162 ft | 433 kts | 224° |
| 2026-04-26 00:53 | 37.73379 | -78.25164 | 35596 ft | 432 kts | 224° |
| 2026-04-26 00:54 | 37.71070 | -78.27594 | 35939 ft | 432 kts | 224° |
| 2026-04-26 00:54 | 37.68744 | -78.30038 | 36357 ft | 431 kts | 225° |
| 2026-04-26 00:54 | 37.66461 | -78.32436 | 36692 ft | 431 kts | 225° |
| 2026-04-26 00:54 | 37.64143 | -78.34869 | 37007 ft | 431 kts | 225° |
| 2026-04-26 00:55 | 37.61833 | -78.37292 | 37297 ft | 431 kts | 225° |
| 2026-04-26 00:55 | 37.59533 | -78.39701 | 37594 ft | 431 kts | 225° |
| 2026-04-26 00:55 | 37.57198 | -78.42147 | 37827 ft | 430 kts | 225° |
| 2026-04-26 00:55 | 37.54926 | -78.44523 | 37797 ft | 430 kts | 225° |
| 2026-04-26 00:56 | 37.50320 | -78.49334 | 37813 ft | 427 kts | 225° |
| 2026-04-26 00:56 | 37.45754 | -78.54091 | 37813 ft | 427 kts | 225° |
| 2026-04-26 00:57 | 37.41168 | -78.58826 | 37809 ft | 427 kts | 225° |
| 2026-04-26 00:57 | 37.36578 | -78.63559 | 37816 ft | 427 kts | 225° |
| 2026-04-26 00:58 | 37.32017 | -78.68255 | 37824 ft | 427 kts | 225° |
| 2026-04-26 00:58 | 37.27419 | -78.72982 | 37823 ft | 427 kts | 224° |
| 2026-04-26 00:59 | 37.22826 | -78.77694 | 37827 ft | 425 kts | 224° |
| 2026-04-26 00:59 | 37.18243 | -78.82391 | 37816 ft | 425 kts | 224° |
| 2026-04-26 01:00 | 37.13660 | -78.87077 | 37806 ft | 424 kts | 224° |
| 2026-04-26 01:00 | 37.09127 | -78.91708 | 37814 ft | 424 kts | 224° |
| 2026-04-26 01:01 | 37.04570 | -78.96353 | 37813 ft | 424 kts | 224° |
| 2026-04-26 01:01 | 36.99984 | -79.01022 | 37806 ft | 423 kts | 224° |
| 2026-04-26 01:02 | 36.95432 | -79.05650 | 37797 ft | 423 kts | 224° |
| 2026-04-26 01:02 | 36.90885 | -79.10317 | 37793 ft | 423 kts | 224° |
| 2026-04-26 01:03 | 36.86321 | -79.14998 | 37793 ft | 425 kts | 224° |
| 2026-04-26 01:03 | 36.81777 | -79.19652 | 37810 ft | 424 kts | 225° |
| 2026-04-26 01:04 | 36.77196 | -79.24335 | 37819 ft | 425 kts | 224° |
| 2026-04-26 01:04 | 36.72641 | -79.28986 | 37822 ft | 425 kts | 224° |
| 2026-04-26 01:05 | 36.68071 | -79.33643 | 37819 ft | 424 kts | 224° |
| 2026-04-26 01:05 | 36.63511 | -79.38284 | 37828 ft | 425 kts | 224° |
| 2026-04-26 01:06 | 36.58944 | -79.42923 | 37820 ft | 425 kts | 225° |
| 2026-04-26 01:06 | 36.54350 | -79.47584 | 37814 ft | 425 kts | 224° |
| 2026-04-26 01:07 | 36.49771 | -79.52222 | 37808 ft | 426 kts | 224° |
| 2026-04-26 01:07 | 36.45202 | -79.56841 | 37806 ft | 425 kts | 224° |
| 2026-04-26 01:08 | 36.40617 | -79.61470 | 37810 ft | 425 kts | 224° |
| 2026-04-26 01:08 | 36.36037 | -79.66087 | 37818 ft | 427 kts | 224° |
| 2026-04-26 01:09 | 36.31407 | -79.70747 | 37833 ft | 429 kts | 224° |
| 2026-04-26 01:09 | 36.26812 | -79.75362 | 37831 ft | 423 kts | 224° |
| 2026-04-26 01:10 | 36.22224 | -79.79967 | 37837 ft | 428 kts | 224° |
| 2026-04-26 01:10 | 36.17602 | -79.84597 | 37829 ft | 427 kts | 224° |
| 2026-04-26 01:11 | 36.13019 | -79.89180 | 37830 ft | 424 kts | 224° |
| 2026-04-26 01:11 | 36.08441 | -79.93751 | 37835 ft | 427 kts | 224° |
| 2026-04-26 01:12 | 36.03550 | -79.97926 | 37854 ft | 435 kts | 211° |
| 2026-04-26 01:12 | 35.97913 | -80.00848 | 37839 ft | 440 kts | 209° |
| 2026-04-26 01:13 | 35.92271 | -80.03680 | 37829 ft | 439 kts | 208° |
| 2026-04-26 01:13 | 35.86595 | -80.06499 | 37821 ft | 440 kts | 208° |
| 2026-04-26 01:14 | 35.80939 | -80.09293 | 37823 ft | 440 kts | 208° |
| 2026-04-26 01:14 | 35.75244 | -80.12098 | 37825 ft | 438 kts | 208° |
| 2026-04-26 01:15 | 35.69569 | -80.14889 | 37821 ft | 443 kts | 208° |
| 2026-04-26 01:15 | 35.63882 | -80.17677 | 37821 ft | 440 kts | 208° |
| 2026-04-26 01:16 | 35.58195 | -80.20463 | 37841 ft | 439 kts | 208° |
| 2026-04-26 01:16 | 35.52538 | -80.23231 | 37835 ft | 442 kts | 208° |
| 2026-04-26 01:17 | 35.46812 | -80.26025 | 37839 ft | 439 kts | 208° |
| 2026-04-26 01:17 | 35.41132 | -80.28796 | 37836 ft | 441 kts | 208° |
| 2026-04-26 01:18 | 35.35446 | -80.31564 | 37834 ft | 440 kts | 208° |
| 2026-04-26 01:18 | 35.29783 | -80.34315 | 37818 ft | 439 kts | 209° |
| 2026-04-26 01:19 | 35.24062 | -80.37095 | 37819 ft | 443 kts | 208° |
| 2026-04-26 01:19 | 35.18350 | -80.39862 | 37813 ft | 442 kts | 208° |
| 2026-04-26 01:20 | 35.12622 | -80.42633 | 37808 ft | 440 kts | 208° |
| 2026-04-26 01:20 | 35.06946 | -80.45377 | 37810 ft | 443 kts | 209° |
| 2026-04-26 01:21 | 35.01205 | -80.48146 | 37814 ft | 444 kts | 208° |
| 2026-04-26 01:21 | 34.95453 | -80.50917 | 37811 ft | 445 kts | 208° |
| 2026-04-26 01:22 | 34.89743 | -80.53663 | 37814 ft | 447 kts | 208° |
| 2026-04-26 01:22 | 34.83922 | -80.56458 | 37804 ft | 442 kts | 208° |
| 2026-04-26 01:23 | 34.78172 | -80.59216 | 37803 ft | 447 kts | 208° |
| 2026-04-26 01:23 | 34.72391 | -80.61984 | 37807 ft | 448 kts | 208° |
| 2026-04-26 01:24 | 34.66581 | -80.64762 | 37813 ft | 448 kts | 208° |
| 2026-04-26 01:24 | 34.60676 | -80.67187 | 37818 ft | 453 kts | 204° |
| 2026-04-26 01:25 | 34.54632 | -80.69429 | 37812 ft | 453 kts | 203° |
| 2026-04-26 01:25 | 34.48589 | -80.71671 | 37813 ft | 452 kts | 204° |
| 2026-04-26 01:26 | 34.42592 | -80.73898 | 37827 ft | 454 kts | 204° |
| 2026-04-26 01:26 | 34.36542 | -80.76141 | 37825 ft | 454 kts | 203° |
| 2026-04-26 01:27 | 34.30497 | -80.78378 | 37815 ft | 454 kts | 203° |
| 2026-04-26 01:27 | 34.24480 | -80.80602 | 37823 ft | 456 kts | 204° |
| 2026-04-26 01:28 | 34.18406 | -80.82842 | 37813 ft | 453 kts | 204° |
| 2026-04-26 01:28 | 34.12346 | -80.85078 | 37831 ft | 457 kts | 204° |
| 2026-04-26 01:29 | 34.06262 | -80.87315 | 37824 ft | 455 kts | 204° |
| 2026-04-26 01:29 | 34.00223 | -80.89533 | 37822 ft | 454 kts | 204° |
| 2026-04-26 01:30 | 33.94175 | -80.91754 | 37830 ft | 457 kts | 204° |
| 2026-04-26 01:30 | 33.88084 | -80.93985 | 37829 ft | 456 kts | 204° |
| 2026-04-26 01:31 | 33.82091 | -80.96178 | 37828 ft | 458 kts | 203° |
| 2026-04-26 01:31 | 33.75995 | -80.98403 | 37826 ft | 456 kts | 204° |
| 2026-04-26 01:32 | 33.69921 | -81.00620 | 37823 ft | 459 kts | 204° |
| 2026-04-26 01:32 | 33.63777 | -81.02857 | 37814 ft | 459 kts | 203° |
| 2026-04-26 01:33 | 33.57681 | -81.05074 | 37808 ft | 462 kts | 204° |
| 2026-04-26 01:33 | 33.51531 | -81.07305 | 37816 ft | 459 kts | 203° |
| 2026-04-26 01:34 | 33.45444 | -81.09512 | 37814 ft | 458 kts | 203° |
| 2026-04-26 01:34 | 33.39326 | -81.11728 | 37810 ft | 461 kts | 203° |
| 2026-04-26 01:35 | 33.33118 | -81.13972 | 37810 ft | 462 kts | 203° |
| 2026-04-26 01:35 | 33.26998 | -81.16181 | 37813 ft | 463 kts | 203° |
| 2026-04-26 01:36 | 33.20806 | -81.18412 | 37813 ft | 463 kts | 203° |
| 2026-04-26 01:37 | 33.11573 | -81.21733 | 37816 ft | 462 kts | 204° |
| 2026-04-26 01:37 | 33.05401 | -81.23949 | 37825 ft | 463 kts | 203° |
| 2026-04-26 01:38 | 32.99254 | -81.26154 | 37820 ft | 464 kts | 203° |
| 2026-04-26 01:38 | 32.93043 | -81.28377 | 37820 ft | 464 kts | 203° |
| 2026-04-26 01:39 | 32.86877 | -81.30582 | 37808 ft | 465 kts | 203° |
| 2026-04-26 01:39 | 32.80627 | -81.32813 | 37804 ft | 467 kts | 203° |
| 2026-04-26 01:40 | 32.74421 | -81.35025 | 37798 ft | 464 kts | 203° |
| 2026-04-26 01:40 | 32.68238 | -81.37225 | 37808 ft | 466 kts | 203° |
| 2026-04-26 01:41 | 32.62022 | -81.39435 | 37810 ft | 465 kts | 203° |
| 2026-04-26 01:41 | 32.55822 | -81.41634 | 37811 ft | 463 kts | 203° |
| 2026-04-26 01:42 | 32.49648 | -81.43824 | 37814 ft | 467 kts | 203° |
| 2026-04-26 01:42 | 32.43426 | -81.46025 | 37808 ft | 465 kts | 203° |
| 2026-04-26 01:43 | 32.37216 | -81.48221 | 37820 ft | 469 kts | 203° |
| 2026-04-26 01:43 | 32.30934 | -81.50436 | 37817 ft | 469 kts | 203° |
| 2026-04-26 01:44 | 32.24718 | -81.52626 | 37823 ft | 468 kts | 203° |
| 2026-04-26 01:44 | 32.18469 | -81.54825 | 37823 ft | 469 kts | 203° |
| 2026-04-26 01:45 | 32.12236 | -81.57014 | 37818 ft | 468 kts | 202° |
| 2026-04-26 01:45 | 32.05999 | -81.59203 | 37821 ft | 467 kts | 203° |
| 2026-04-26 01:46 | 31.99738 | -81.61398 | 37827 ft | 470 kts | 203° |
| 2026-04-26 01:46 | 31.93492 | -81.63582 | 37825 ft | 469 kts | 202° |
| 2026-04-26 01:47 | 31.87208 | -81.65777 | 37835 ft | 471 kts | 202° |
| 2026-04-26 01:47 | 31.80917 | -81.67971 | 37832 ft | 471 kts | 202° |
| 2026-04-26 01:48 | 31.74647 | -81.70155 | 37824 ft | 469 kts | 202° |
| 2026-04-26 01:48 | 31.68395 | -81.72330 | 37822 ft | 471 kts | 202° |
| 2026-04-26 01:49 | 31.62076 | -81.74526 | 37825 ft | 471 kts | 202° |
| 2026-04-26 01:49 | 31.55808 | -81.76700 | 37838 ft | 471 kts | 202° |
| 2026-04-26 01:50 | 31.49527 | -81.78874 | 37836 ft | 470 kts | 202° |
| 2026-04-26 01:50 | 31.43254 | -81.81046 | 37848 ft | 471 kts | 202° |
| 2026-04-26 01:51 | 31.37159 | -81.83688 | 37850 ft | 465 kts | 209° |
| 2026-04-26 01:51 | 31.31201 | -81.86667 | 37833 ft | 465 kts | 208° |
| 2026-04-26 01:52 | 31.25282 | -81.89606 | 37835 ft | 466 kts | 208° |
| 2026-04-26 01:52 | 31.19313 | -81.92561 | 37842 ft | 465 kts | 208° |
| 2026-04-26 01:53 | 31.13339 | -81.95513 | 37845 ft | 466 kts | 208° |
| 2026-04-26 01:53 | 31.07345 | -81.98469 | 37845 ft | 465 kts | 208° |
| 2026-04-26 01:54 | 31.01386 | -82.01405 | 37838 ft | 468 kts | 208° |
| 2026-04-26 01:54 | 30.95431 | -82.04334 | 37829 ft | 465 kts | 208° |
| 2026-04-26 01:55 | 30.89460 | -82.07266 | 37832 ft | 463 kts | 208° |
| 2026-04-26 01:55 | 30.83480 | -82.10201 | 37833 ft | 467 kts | 208° |
| 2026-04-26 01:56 | 30.77510 | -82.13126 | 37835 ft | 465 kts | 208° |
| 2026-04-26 01:56 | 30.71558 | -82.16037 | 37837 ft | 466 kts | 208° |
| 2026-04-26 01:57 | 30.65585 | -82.18894 | 37844 ft | 468 kts | 204° |
| 2026-04-26 01:57 | 30.59091 | -82.20330 | 37840 ft | 478 kts | 191° |
| 2026-04-26 01:58 | 30.52464 | -82.21124 | 37837 ft | 477 kts | 190° |
| 2026-04-26 01:58 | 30.45858 | -82.21891 | 37833 ft | 477 kts | 190° |
| 2026-04-26 01:59 | 30.39224 | -82.22649 | 37833 ft | 478 kts | 190° |
| 2026-04-26 01:59 | 30.32619 | -82.23397 | 37846 ft | 479 kts | 190° |
| 2026-04-26 02:00 | 30.26016 | -82.24143 | 37845 ft | 478 kts | 190° |
| 2026-04-26 02:00 | 30.19337 | -82.24895 | 37847 ft | 479 kts | 189° |
| 2026-04-26 02:01 | 30.12692 | -82.24838 | 37860 ft | 486 kts | 178° |
| 2026-04-26 02:01 | 30.05933 | -82.24003 | 37844 ft | 485 kts | 178° |
| 2026-04-26 02:02 | 29.99210 | -82.23153 | 37854 ft | 487 kts | 178° |
| 2026-04-26 02:02 | 29.92473 | -82.22292 | 37856 ft | 487 kts | 177° |
| 2026-04-26 02:03 | 29.85712 | -82.21424 | 37860 ft | 487 kts | 177° |
| 2026-04-26 02:03 | 29.78947 | -82.20555 | 37871 ft | 487 kts | 177° |
| 2026-04-26 02:04 | 29.72220 | -82.19693 | 37873 ft | 488 kts | 177° |
| 2026-04-26 02:04 | 29.65444 | -82.18824 | 37871 ft | 488 kts | 177° |
| 2026-04-26 02:05 | 29.58700 | -82.17963 | 37867 ft | 490 kts | 176° |
| 2026-04-26 02:05 | 29.51936 | -82.17108 | 37863 ft | 489 kts | 176° |
| 2026-04-26 02:06 | 29.45167 | -82.16255 | 37872 ft | 489 kts | 176° |
| 2026-04-26 02:06 | 29.38409 | -82.15405 | 37873 ft | 488 kts | 176° |
| 2026-04-26 02:07 | 29.31642 | -82.14555 | 37872 ft | 488 kts | 176° |
| 2026-04-26 02:07 | 29.24896 | -82.13708 | 37876 ft | 489 kts | 176° |
| 2026-04-26 02:08 | 29.18140 | -82.12869 | 37876 ft | 490 kts | 177° |
| 2026-04-26 02:08 | 29.11310 | -82.12623 | 37877 ft | 488 kts | 181° |
| 2026-04-26 02:09 | 29.04577 | -82.12475 | 37875 ft | 481 kts | 181° |
| 2026-04-26 02:09 | 29.01257 | -82.12402 | 37858 ft | 466 kts | 181° |
| 2026-04-26 02:09 | 28.98049 | -82.12334 | 37474 ft | 459 kts | 181° |
| 2026-04-26 02:09 | 28.94854 | -82.12268 | 36576 ft | 460 kts | 181° |
| 2026-04-26 02:10 | 28.91673 | -82.12202 | 35518 ft | 462 kts | 181° |
| 2026-04-26 02:10 | 28.88460 | -82.12136 | 34397 ft | 464 kts | 181° |
| 2026-04-26 02:10 | 28.85199 | -82.12068 | 33309 ft | 466 kts | 181° |
| 2026-04-26 02:10 | 28.81943 | -82.12000 | 32206 ft | 466 kts | 181° |
| 2026-04-26 02:11 | 28.78747 | -82.11932 | 31464 ft | 459 kts | 181° |
| 2026-04-26 02:11 | 28.75521 | -82.11866 | 30816 ft | 472 kts | 181° |
| 2026-04-26 02:11 | 28.72215 | -82.11798 | 30148 ft | 486 kts | 181° |
| 2026-04-26 02:11 | 28.68796 | -82.11710 | 29483 ft | 487 kts | 179° |
| 2026-04-26 02:12 | 28.65423 | -82.11320 | 28835 ft | 485 kts | 174° |
| 2026-04-26 02:12 | 28.62078 | -82.10851 | 28202 ft | 479 kts | 174° |
| 2026-04-26 02:12 | 28.58810 | -82.10394 | 27561 ft | 471 kts | 174° |
| 2026-04-26 02:12 | 28.55588 | -82.09939 | 26924 ft | 465 kts | 174° |
| 2026-04-26 02:13 | 28.52396 | -82.09486 | 26307 ft | 462 kts | 174° |
| 2026-04-26 02:13 | 28.49225 | -82.09011 | 25706 ft | 459 kts | 171° |
| 2026-04-26 02:13 | 28.46119 | -82.08270 | 25102 ft | 454 kts | 168° |
| 2026-04-26 02:13 | 28.43032 | -82.07490 | 24485 ft | 451 kts | 168° |
| 2026-04-26 02:14 | 28.39991 | -82.06719 | 23904 ft | 445 kts | 168° |
| 2026-04-26 02:14 | 28.37010 | -82.05961 | 23331 ft | 441 kts | 168° |
| 2026-04-26 02:14 | 28.34005 | -82.05194 | 22757 ft | 436 kts | 168° |
| 2026-04-26 02:14 | 28.31070 | -82.04445 | 22194 ft | 433 kts | 169° |
| 2026-04-26 02:15 | 28.28107 | -82.03862 | 21624 ft | 428 kts | 174° |
| 2026-04-26 02:15 | 28.25187 | -82.03424 | 21058 ft | 425 kts | 174° |
| 2026-04-26 02:15 | 28.22278 | -82.02981 | 20503 ft | 422 kts | 174° |
| 2026-04-26 02:15 | 28.19343 | -82.02537 | 19933 ft | 419 kts | 174° |
| 2026-04-26 02:16 | 28.16468 | -82.02137 | 19381 ft | 415 kts | 178° |
| 2026-04-26 02:16 | 28.13606 | -82.02278 | 18827 ft | 408 kts | 193° |
| 2026-04-26 02:16 | 28.10899 | -82.03090 | 18297 ft | 401 kts | 202° |
| 2026-04-26 02:16 | 28.08316 | -82.04220 | 17774 ft | 396 kts | 206° |
| 2026-04-26 02:17 | 28.05803 | -82.05499 | 17240 ft | 391 kts | 209° |
| 2026-04-26 02:17 | 28.03378 | -82.06829 | 16710 ft | 386 kts | 210° |
| 2026-04-26 02:17 | 28.00979 | -82.08207 | 16199 ft | 383 kts | 211° |
| 2026-04-26 02:17 | 27.98634 | -82.09589 | 15685 ft | 379 kts | 211° |
| 2026-04-26 02:18 | 27.96309 | -82.10980 | 15176 ft | 374 kts | 212° |
| 2026-04-26 02:18 | 27.94021 | -82.12360 | 14666 ft | 373 kts | 212° |
| 2026-04-26 02:18 | 27.91751 | -82.13735 | 14130 ft | 369 kts | 212° |
| 2026-04-26 02:18 | 27.89520 | -82.15091 | 13643 ft | 365 kts | 212° |
| 2026-04-26 02:19 | 27.87267 | -82.16460 | 13144 ft | 363 kts | 212° |
| 2026-04-26 02:19 | 27.85075 | -82.17795 | 12633 ft | 360 kts | 211° |
| 2026-04-26 02:19 | 27.82859 | -82.19143 | 12149 ft | 358 kts | 211° |
| 2026-04-26 02:19 | 27.80681 | -82.20467 | 11665 ft | 355 kts | 211° |
| 2026-04-26 02:20 | 27.78507 | -82.21790 | 11194 ft | 353 kts | 211° |
| 2026-04-26 02:20 | 27.76493 | -82.23333 | 10726 ft | 348 kts | 223° |
| 2026-04-26 02:20 | 27.74685 | -82.25110 | 10378 ft | 345 kts | 222° |
| 2026-04-26 02:20 | 27.72870 | -82.26878 | 10181 ft | 334 kts | 223° |
| 2026-04-26 02:21 | 27.71178 | -82.28532 | 9937 ft | 315 kts | 223° |
| 2026-04-26 02:21 | 27.69578 | -82.30104 | 9724 ft | 297 kts | 223° |
| 2026-04-26 02:21 | 27.68074 | -82.31581 | 9667 ft | 274 kts | 223° |
| 2026-04-26 02:21 | 27.66671 | -82.32961 | 9480 ft | 268 kts | 223° |
| 2026-04-26 02:22 | 27.65243 | -82.34369 | 9060 ft | 270 kts | 223° |
| 2026-04-26 02:22 | 27.63844 | -82.35745 | 8623 ft | 266 kts | 222° |
| 2026-04-26 02:22 | 27.62452 | -82.37103 | 8165 ft | 264 kts | 219° |
| 2026-04-26 02:22 | 27.60832 | -82.37998 | 7739 ft | 264 kts | 190° |
| 2026-04-26 02:23 | 27.58971 | -82.37985 | 7332 ft | 267 kts | 172° |
| 2026-04-26 02:23 | 27.57160 | -82.37688 | 6883 ft | 264 kts | 172° |
| 2026-04-26 02:23 | 27.55361 | -82.37387 | 6411 ft | 259 kts | 170° |
| 2026-04-26 02:23 | 27.53580 | -82.37068 | 5964 ft | 258 kts | 169° |
| 2026-04-26 02:24 | 27.51790 | -82.36737 | 5510 ft | 257 kts | 170° |
| 2026-04-26 02:24 | 27.50042 | -82.36408 | 5054 ft | 254 kts | 171° |
| 2026-04-26 02:24 | 27.48329 | -82.36083 | 4595 ft | 250 kts | 172° |
| 2026-04-26 02:24 | 27.46598 | -82.35754 | 4135 ft | 249 kts | 172° |
| 2026-04-26 02:25 | 27.44884 | -82.35427 | 3675 ft | 248 kts | 172° |
| 2026-04-26 02:25 | 27.43191 | -82.35105 | 3213 ft | 246 kts | 172° |
| 2026-04-26 02:25 | 27.41526 | -82.34787 | 2941 ft | 237 kts | 172° |
| 2026-04-26 02:25 | 27.39922 | -82.34480 | 2950 ft | 240 kts | 173° |
| 2026-04-26 02:26 | 27.38230 | -82.34159 | 2946 ft | 246 kts | 172° |
| 2026-04-26 02:26 | 27.36549 | -82.33829 | 2941 ft | 245 kts | 171° |
| 2026-04-26 02:26 | 27.34859 | -82.33459 | 2949 ft | 246 kts | 171° |
| 2026-04-26 02:26 | 27.33165 | -82.33086 | 2940 ft | 246 kts | 171° |
| 2026-04-26 02:27 | 27.31506 | -82.32717 | 2938 ft | 244 kts | 171° |
| 2026-04-26 02:27 | 27.29825 | -82.32343 | 2942 ft | 245 kts | 171° |
| 2026-04-26 02:27 | 27.28136 | -82.32115 | 2944 ft | 241 kts | 188° |
| 2026-04-26 02:27 | 27.26596 | -82.32743 | 2971 ft | 240 kts | 216° |
| 2026-04-26 02:28 | 27.25291 | -82.33942 | 2950 ft | 240 kts | 222° |
| 2026-04-26 02:28 | 27.24025 | -82.35190 | 2943 ft | 239 kts | 223° |
| 2026-04-26 02:28 | 27.23074 | -82.36658 | 2956 ft | 237 kts | 249° |
| 2026-04-26 02:28 | 27.22930 | -82.38505 | 2979 ft | 243 kts | 283° |
| 2026-04-26 02:29 | 27.23719 | -82.40171 | 2977 ft | 246 kts | 314° |
| 2026-04-26 02:29 | 27.25155 | -82.41238 | 2972 ft | 248 kts | 333° |
| 2026-04-26 02:29 | 27.26730 | -82.42046 | 2949 ft | 248 kts | 334° |
| 2026-04-26 02:29 | 27.28287 | -82.42894 | 2829 ft | 251 kts | 324° |
| 2026-04-26 02:30 | 27.29577 | -82.44192 | 2536 ft | 248 kts | 313° |
| 2026-04-26 02:30 | 27.30764 | -82.45534 | 2204 ft | 233 kts | 314° |
| 2026-04-26 02:30 | 27.31874 | -82.46780 | 1940 ft | 216 kts | 312° |
| 2026-04-26 02:30 | 27.32852 | -82.47887 | 1713 ft | 184 kts | 312° |
| 2026-04-26 02:31 | 27.33687 | -82.48835 | 1445 ft | 160 kts | 311° |
| 2026-04-26 02:31 | 27.34422 | -82.49673 | 1214 ft | 141 kts | 311° |
| 2026-04-26 02:31 | 27.35070 | -82.50410 | 1033 ft | 124 kts | 311° |
| 2026-04-26 02:31 | 27.35665 | -82.51092 | 888 ft | 121 kts | 310° |
| 2026-04-26 02:32 | 27.36277 | -82.51794 | 757 ft | 127 kts | 311° |
| 2026-04-26 02:32 | 27.36890 | -82.52490 | 592 ft | 125 kts | 311° |
| 2026-04-26 02:32 | 27.37504 | -82.53191 | 430 ft | 124 kts | 311° |
| 2026-04-26 02:32 | 27.38124 | -82.53880 | 275 ft | 133 kts | 311° |
| 2026-04-26 02:33 | 27.38784 | -82.54639 | 94 ft | 131 kts | 311° |
| 2026-04-26 02:33 | 27.39384 | -82.55334 | 39 ft | 108 kts | 315° |
| 2026-04-26 02:33 | 27.39744 | -82.55753 | 39 ft | 48 kts | 315° |
| 2026-04-26 02:33 | 27.39921 | -82.55950 | 39 ft | 28 kts | 311° |
| 2026-04-26 02:34 | 27.39894 | -82.56048 | 39 ft | 15 kts | 183° |
| 2026-04-26 02:34 | 27.39806 | -82.55990 | 39 ft | 15 kts | 134° |
| 2026-04-26 02:34 | 27.39730 | -82.55904 | 39 ft | 15 kts | 135° |
| 2026-04-26 02:34 | 27.39656 | -82.55817 | 39 ft | 15 kts | 134° |
| 2026-04-26 02:35 | 27.39578 | -82.55728 | 39 ft | 16 kts | 135° |
| 2026-04-26 02:35 | 27.39499 | -82.55637 | 39 ft | 16 kts | 134° |
| 2026-04-26 02:35 | 27.39418 | -82.55544 | 39 ft | 16 kts | 135° |
| 2026-04-26 02:35 | 27.39335 | -82.55450 | 39 ft | 16 kts | 134° |
| 2026-04-26 02:36 | 27.39252 | -82.55354 | 39 ft | 17 kts | 135° |
| 2026-04-26 02:36 | 27.39173 | -82.55267 | 39 ft | 10 kts | 141° |
| 2026-04-26 02:36 | 27.39115 | -82.55280 | 39 ft | 8 kts | 231° |
| 2026-04-26 02:36 | 27.39106 | -82.55338 | 39 ft | 6 kts | 259° |
| 2026-04-26 02:37 | 27.39076 | -82.55371 | 39 ft | 6 kts | 202° |
| 2026-04-26 02:37 | 27.39051 | -82.55380 | 39 ft | 0 kts | 196° |
| 2026-04-26 02:37 | 27.39047 | -82.55381 | 39 ft | 0 kts | 196° |